sensor_id;sensor_type;location;lat;lon;timestamp;pressure;altitude;pressure_sealevel;temperature;humidity
73422;BME280;61637;47.760;-122.022;2023-04-21T00:00:02;102268.97799999999;;;6.7;unknown
73422;BME280;61637;47.760;-122.022;2023-04-21T00:02:01;102268.97799999999;;;6.7;unknown
73422;BME280;61637;47.760;-122.022;2023-04-21T00:04:01;102268.97799999999;;;6.6;unknown
73422;BME280;61637;47.760;-122.022;2023-04-21T00:06:01;102268.97799999999;;;6.5;unknown
73422;BME280;61637;47.760;-122.022;2023-04-21T00:08:01;102268.97799999999;;;6.4;unknown
73422;BME280;61637;47.760;-122.022;2023-04-21T00:10:01;102268.97799999999;;;6.4;unknown
73422;BME280;61637;47.760;-122.022;2023-04-21T00:12:01;102268.97799999999;;;6.3;unknown
73422;BME280;61637;47.760;-122.022;2023-04-21T00:14:01;102268.97799999999;;;6.3;unknown
73422;BME280;61637;47.760;-122.022;2023-04-21T00:16:01;102268.97799999999;;;6.3;unknown
73422;BME280;61637;47.760;-122.022;2023-04-21T00:18:01;102268.97799999999;;;6.3;unknown
73422;BME280;61637;47.760;-122.022;2023-04-21T00:20:01;102268.97799999999;;;6.2;unknown
73422;BME280;61637;47.760;-122.022;2023-04-21T00:22:01;102268.97799999999;;;6.2;unknown
73422;BME280;61637;47.760;-122.022;2023-04-21T00:24:01;102268.97799999999;;;6.2;unknown
73422;BME280;61637;47.760;-122.022;2023-04-21T00:26:01;102268.97799999999;;;6.2;unknown
73422;BME280;61637;47.760;-122.022;2023-04-21T00:28:01;102268.97799999999;;;6.2;unknown
73422;BME280;61637;47.760;-122.022;2023-04-21T00:30:01;102268.97799999999;;;6.2;unknown
73422;BME280;61637;47.760;-122.022;2023-04-21T00:32:01;102268.97799999999;;;6.2;unknown
73422;BME280;61637;47.760;-122.022;2023-04-21T00:34:01;102268.97799999999;;;6.1;unknown
73422;BME280;61637;47.760;-122.022;2023-04-21T00:36:01;102268.97799999999;;;6.1;unknown
73422;BME280;61637;47.760;-122.022;2023-04-21T00:38:01;102268.97799999999;;;6.1;unknown
73422;BME280;61637;47.760;-122.022;2023-04-21T00:40:01;102268.97799999999;;;6.2;unknown
73422;BME280;61637;47.760;-122.022;2023-04-21T00:42:01;102268.97799999999;;;6.1;unknown
73422;BME280;61637;47.760;-122.022;2023-04-21T00:44:01;102268.97799999999;;;6.2;unknown
73422;BME280;61637;47.760;-122.022;2023-04-21T00:46:01;102268.97799999999;;;6.2;unknown
73422;BME280;61637;47.760;-122.022;2023-04-21T00:48:01;102268.97799999999;;;6.2;unknown
73422;BME280;61637;47.760;-122.022;2023-04-21T00:50:01;102268.97799999999;;;6.2;unknown
73422;BME280;61637;47.760;-122.022;2023-04-21T00:52:01;102268.97799999999;;;6.1;unknown
73422;BME280;61637;47.760;-122.022;2023-04-21T00:54:02;102268.97799999999;;;6.2;unknown
73422;BME280;61637;47.760;-122.022;2023-04-21T00:56:01;102268.97799999999;;;6.2;unknown
73422;BME280;61637;47.760;-122.022;2023-04-21T00:58:01;102268.97799999999;;;6.1;unknown
73422;BME280;61637;47.760;-122.022;2023-04-21T01:00:01;102268.97799999999;;;6.2;unknown
73422;BME280;61637;47.760;-122.022;2023-04-21T01:02:01;102268.97799999999;;;6.1;unknown
73422;BME280;61637;47.760;-122.022;2023-04-21T01:04:01;102268.97799999999;;;6.1;unknown
73422;BME280;61637;47.760;-122.022;2023-04-21T01:06:01;102268.97799999999;;;6.2;unknown
73422;BME280;61637;47.760;-122.022;2023-04-21T01:08:01;102268.97799999999;;;6.1;unknown
73422;BME280;61637;47.760;-122.022;2023-04-21T01:10:01;102268.97799999999;;;6.1;unknown
73422;BME280;61637;47.760;-122.022;2023-04-21T01:12:01;102268.97799999999;;;6.1;unknown
73422;BME280;61637;47.760;-122.022;2023-04-21T01:14:01;102268.97799999999;;;6.1;unknown
73422;BME280;61637;47.760;-122.022;2023-04-21T01:16:01;102268.97799999999;;;6.0;unknown
73422;BME280;61637;47.760;-122.022;2023-04-21T01:18:01;102268.97799999999;;;6.0;unknown
73422;BME280;61637;47.760;-122.022;2023-04-21T01:20:01;102268.97799999999;;;6.0;unknown
73422;BME280;61637;47.760;-122.022;2023-04-21T01:22:01;102268.97799999999;;;5.9;unknown
73422;BME280;61637;47.760;-122.022;2023-04-21T01:24:01;102268.97799999999;;;5.9;unknown
73422;BME280;61637;47.760;-122.022;2023-04-21T01:26:01;102268.97799999999;;;5.9;unknown
73422;BME280;61637;47.760;-122.022;2023-04-21T01:28:01;102268.97799999999;;;5.9;unknown
73422;BME280;61637;47.760;-122.022;2023-04-21T01:30:01;102268.97799999999;;;5.9;unknown
73422;BME280;61637;47.760;-122.022;2023-04-21T01:32:03;102268.97799999999;;;5.9;unknown
73422;BME280;61637;47.760;-122.022;2023-04-21T01:34:02;102268.97799999999;;;5.9;unknown
73422;BME280;61637;47.760;-122.022;2023-04-21T01:36:01;102268.97799999999;;;5.8;unknown
73422;BME280;61637;47.760;-122.022;2023-04-21T01:38:01;102268.97799999999;;;5.8;unknown
73422;BME280;61637;47.760;-122.022;2023-04-21T01:40:01;102268.97799999999;;;5.8;unknown
73422;BME280;61637;47.760;-122.022;2023-04-21T01:42:01;102268.97799999999;;;5.8;unknown
73422;BME280;61637;47.760;-122.022;2023-04-21T01:44:01;102268.97799999999;;;5.7;unknown
73422;BME280;61637;47.760;-122.022;2023-04-21T01:46:01;102268.97799999999;;;5.7;unknown
73422;BME280;61637;47.760;-122.022;2023-04-21T01:48:01;102268.97799999999;;;5.7;unknown
73422;BME280;61637;47.760;-122.022;2023-04-21T01:50:01;102268.97799999999;;;5.7;unknown
73422;BME280;61637;47.760;-122.022;2023-04-21T01:52:01;102268.97799999999;;;5.6;unknown
73422;BME280;61637;47.760;-122.022;2023-04-21T01:54:01;102268.97799999999;;;5.6;unknown
73422;BME280;61637;47.760;-122.022;2023-04-21T01:56:01;102268.97799999999;;;5.6;unknown
73422;BME280;61637;47.760;-122.022;2023-04-21T01:58:01;102268.97799999999;;;5.6;unknown
73422;BME280;61637;47.760;-122.022;2023-04-21T02:00:01;102268.97799999999;;;5.6;unknown
73422;BME280;61637;47.760;-122.022;2023-04-21T02:02:01;102268.97799999999;;;5.6;unknown
73422;BME280;61637;47.760;-122.022;2023-04-21T02:04:01;102268.97799999999;;;5.5;unknown
73422;BME280;61637;47.760;-122.022;2023-04-21T02:06:01;102268.97799999999;;;5.5;unknown
73422;BME280;61637;47.760;-122.022;2023-04-21T02:08:01;102268.97799999999;;;5.5;unknown
73422;BME280;61637;47.760;-122.022;2023-04-21T02:10:01;102268.97799999999;;;5.4;unknown
73422;BME280;61637;47.760;-122.022;2023-04-21T02:12:01;102268.97799999999;;;5.4;unknown
73422;BME280;61637;47.760;-122.022;2023-04-21T02:14:01;102268.97799999999;;;5.4;unknown
73422;BME280;61637;47.760;-122.022;2023-04-21T02:16:01;102268.97799999999;;;5.4;unknown
73422;BME280;61637;47.760;-122.022;2023-04-21T02:18:01;102268.97799999999;;;5.4;unknown
73422;BME280;61637;47.760;-122.022;2023-04-21T02:20:01;102268.97799999999;;;5.4;unknown
73422;BME280;61637;47.760;-122.022;2023-04-21T02:22:01;102268.97799999999;;;5.4;unknown
73422;BME280;61637;47.760;-122.022;2023-04-21T02:24:01;102268.97799999999;;;5.4;unknown
73422;BME280;61637;47.760;-122.022;2023-04-21T02:26:01;102268.97799999999;;;5.3;unknown
73422;BME280;61637;47.760;-122.022;2023-04-21T02:28:01;102268.97799999999;;;5.3;unknown
73422;BME280;61637;47.760;-122.022;2023-04-21T02:30:01;102268.97799999999;;;5.3;unknown
73422;BME280;61637;47.760;-122.022;2023-04-21T02:32:01;102268.97799999999;;;5.3;unknown
73422;BME280;61637;47.760;-122.022;2023-04-21T02:34:01;102268.97799999999;;;5.3;unknown
73422;BME280;61637;47.760;-122.022;2023-04-21T02:36:01;102268.97799999999;;;5.3;unknown
73422;BME280;61637;47.760;-122.022;2023-04-21T02:38:01;102268.97799999999;;;5.3;unknown
73422;BME280;61637;47.760;-122.022;2023-04-21T02:40:01;102268.97799999999;;;5.3;unknown
73422;BME280;61637;47.760;-122.022;2023-04-21T02:42:01;102268.97799999999;;;5.2;unknown
73422;BME280;61637;47.760;-122.022;2023-04-21T02:44:01;102268.97799999999;;;5.2;unknown
73422;BME280;61637;47.760;-122.022;2023-04-21T02:46:04;102268.97799999999;;;5.3;unknown
73422;BME280;61637;47.760;-122.022;2023-04-21T02:48:01;102268.97799999999;;;5.3;unknown
73422;BME280;61637;47.760;-122.022;2023-04-21T02:50:01;102268.97799999999;;;5.2;unknown
73422;BME280;61637;47.760;-122.022;2023-04-21T02:52:01;102268.97799999999;;;5.2;unknown
73422;BME280;61637;47.760;-122.022;2023-04-21T02:54:01;102268.97799999999;;;5.2;unknown
73422;BME280;61637;47.760;-122.022;2023-04-21T02:56:01;102268.97799999999;;;5.2;unknown
73422;BME280;61637;47.760;-122.022;2023-04-21T02:58:01;102268.97799999999;;;5.2;unknown
73422;BME280;61637;47.760;-122.022;2023-04-21T03:00:01;102268.97799999999;;;5.2;unknown
73422;BME280;61637;47.760;-122.022;2023-04-21T03:02:01;102268.97799999999;;;5.2;unknown
73422;BME280;61637;47.760;-122.022;2023-04-21T03:04:01;102268.97799999999;;;5.2;unknown
73422;BME280;61637;47.760;-122.022;2023-04-21T03:06:01;102268.97799999999;;;5.2;unknown
73422;BME280;61637;47.760;-122.022;2023-04-21T03:08:01;102268.97799999999;;;5.2;unknown
73422;BME280;61637;47.760;-122.022;2023-04-21T03:10:01;102268.97799999999;;;5.2;unknown
73422;BME280;61637;47.760;-122.022;2023-04-21T03:12:01;102268.97799999999;;;5.2;unknown
73422;BME280;61637;47.760;-122.022;2023-04-21T03:14:01;102268.97799999999;;;5.2;unknown
73422;BME280;61637;47.760;-122.022;2023-04-21T03:16:01;102268.97799999999;;;5.1;unknown
73422;BME280;61637;47.760;-122.022;2023-04-21T03:18:01;102268.97799999999;;;5.1;unknown
73422;BME280;61637;47.760;-122.022;2023-04-21T03:20:01;102268.97799999999;;;5.1;unknown
73422;BME280;61637;47.760;-122.022;2023-04-21T03:22:01;102268.97799999999;;;5.1;unknown
73422;BME280;61637;47.760;-122.022;2023-04-21T03:24:01;102268.97799999999;;;5.1;unknown
73422;BME280;61637;47.760;-122.022;2023-04-21T03:26:05;102268.97799999999;;;5.1;unknown
73422;BME280;61637;47.760;-122.022;2023-04-21T03:28:01;102268.97799999999;;;5.1;unknown
73422;BME280;61637;47.760;-122.022;2023-04-21T03:30:01;102268.97799999999;;;5.1;unknown
73422;BME280;61637;47.760;-122.022;2023-04-21T03:32:01;102268.97799999999;;;5.1;unknown
73422;BME280;61637;47.760;-122.022;2023-04-21T03:34:01;102268.97799999999;;;5.1;unknown
73422;BME280;61637;47.760;-122.022;2023-04-21T03:36:01;102268.97799999999;;;5.1;unknown
73422;BME280;61637;47.760;-122.022;2023-04-21T03:38:01;102268.97799999999;;;5.1;unknown
73422;BME280;61637;47.760;-122.022;2023-04-21T03:40:01;102268.97799999999;;;5.1;unknown
73422;BME280;61637;47.760;-122.022;2023-04-21T03:42:01;102268.97799999999;;;5.1;unknown
73422;BME280;61637;47.760;-122.022;2023-04-21T03:44:01;102268.97799999999;;;5.0;unknown
73422;BME280;61637;47.760;-122.022;2023-04-21T03:46:01;102268.97799999999;;;5.0;unknown
73422;BME280;61637;47.760;-122.022;2023-04-21T03:48:01;102268.97799999999;;;5.0;unknown
73422;BME280;61637;47.760;-122.022;2023-04-21T03:50:02;102268.97799999999;;;4.9;unknown
73422;BME280;61637;47.760;-122.022;2023-04-21T03:52:01;102268.97799999999;;;4.9;unknown
73422;BME280;61637;47.760;-122.022;2023-04-21T03:54:01;102268.97799999999;;;4.9;unknown
73422;BME280;61637;47.760;-122.022;2023-04-21T03:56:01;102268.97799999999;;;4.9;unknown
73422;BME280;61637;47.760;-122.022;2023-04-21T03:58:01;102268.97799999999;;;4.9;unknown
73422;BME280;61637;47.760;-122.022;2023-04-21T04:00:01;102268.97799999999;;;4.9;unknown
73422;BME280;61637;47.760;-122.022;2023-04-21T04:02:01;102268.97799999999;;;4.9;unknown
73422;BME280;61637;47.760;-122.022;2023-04-21T04:04:01;102268.97799999999;;;4.9;unknown
73422;BME280;61637;47.760;-122.022;2023-04-21T04:06:01;102268.97799999999;;;4.9;unknown
73422;BME280;61637;47.760;-122.022;2023-04-21T04:08:01;102268.97799999999;;;4.8;unknown
73422;BME280;61637;47.760;-122.022;2023-04-21T04:10:01;102268.97799999999;;;4.8;unknown
73422;BME280;61637;47.760;-122.022;2023-04-21T04:12:01;102268.97799999999;;;4.8;unknown
73422;BME280;61637;47.760;-122.022;2023-04-21T04:14:01;102268.97799999999;;;4.8;unknown
73422;BME280;61637;47.760;-122.022;2023-04-21T04:16:01;102268.97799999999;;;4.8;unknown
73422;BME280;61637;47.760;-122.022;2023-04-21T04:18:01;102268.97799999999;;;4.8;unknown
73422;BME280;61637;47.760;-122.022;2023-04-21T04:20:01;102268.97799999999;;;4.8;unknown
73422;BME280;61637;47.760;-122.022;2023-04-21T04:22:01;102268.97799999999;;;4.8;unknown
73422;BME280;61637;47.760;-122.022;2023-04-21T04:24:01;102268.97799999999;;;4.8;unknown
73422;BME280;61637;47.760;-122.022;2023-04-21T04:26:01;102268.97799999999;;;4.8;unknown
73422;BME280;61637;47.760;-122.022;2023-04-21T04:28:01;102268.97799999999;;;4.8;unknown
73422;BME280;61637;47.760;-122.022;2023-04-21T04:30:01;102268.97799999999;;;4.8;unknown
73422;BME280;61637;47.760;-122.022;2023-04-21T04:32:01;102268.97799999999;;;4.8;unknown
73422;BME280;61637;47.760;-122.022;2023-04-21T04:34:01;102268.97799999999;;;4.8;unknown
73422;BME280;61637;47.760;-122.022;2023-04-21T04:36:01;102268.97799999999;;;4.8;unknown
73422;BME280;61637;47.760;-122.022;2023-04-21T04:38:01;102268.97799999999;;;4.8;unknown
73422;BME280;61637;47.760;-122.022;2023-04-21T04:40:01;102268.97799999999;;;4.8;unknown
73422;BME280;61637;47.760;-122.022;2023-04-21T04:42:01;102268.97799999999;;;4.8;unknown
73422;BME280;61637;47.760;-122.022;2023-04-21T04:44:01;102268.97799999999;;;4.8;unknown
73422;BME280;61637;47.760;-122.022;2023-04-21T04:46:01;102268.97799999999;;;4.8;unknown
73422;BME280;61637;47.760;-122.022;2023-04-21T04:48:01;102268.97799999999;;;4.8;unknown
73422;BME280;61637;47.760;-122.022;2023-04-21T04:50:01;102268.97799999999;;;4.8;unknown
73422;BME280;61637;47.760;-122.022;2023-04-21T04:52:01;102268.97799999999;;;4.8;unknown
73422;BME280;61637;47.760;-122.022;2023-04-21T04:54:01;102268.97799999999;;;4.8;unknown
73422;BME280;61637;47.760;-122.022;2023-04-21T04:56:01;102268.97799999999;;;4.8;unknown
73422;BME280;61637;47.760;-122.022;2023-04-21T04:58:01;102268.97799999999;;;4.8;unknown
73422;BME280;61637;47.760;-122.022;2023-04-21T05:00:01;102268.97799999999;;;4.8;unknown
73422;BME280;61637;47.760;-122.022;2023-04-21T05:02:01;102268.97799999999;;;4.8;unknown
73422;BME280;61637;47.760;-122.022;2023-04-21T05:04:01;102268.97799999999;;;4.8;unknown
73422;BME280;61637;47.760;-122.022;2023-04-21T05:06:01;102268.97799999999;;;4.8;unknown
73422;BME280;61637;47.760;-122.022;2023-04-21T05:08:01;102268.97799999999;;;4.8;unknown
73422;BME280;61637;47.760;-122.022;2023-04-21T05:10:01;102268.97799999999;;;4.8;unknown
73422;BME280;61637;47.760;-122.022;2023-04-21T05:12:01;102268.97799999999;;;4.8;unknown
73422;BME280;61637;47.760;-122.022;2023-04-21T05:14:01;102268.97799999999;;;4.8;unknown
73422;BME280;61637;47.760;-122.022;2023-04-21T05:16:01;102268.97799999999;;;4.8;unknown
73422;BME280;61637;47.760;-122.022;2023-04-21T05:18:01;102268.97799999999;;;4.8;unknown
73422;BME280;61637;47.760;-122.022;2023-04-21T05:20:01;102268.97799999999;;;4.8;unknown
73422;BME280;61637;47.760;-122.022;2023-04-21T05:22:01;102268.97799999999;;;4.8;unknown
73422;BME280;61637;47.760;-122.022;2023-04-21T05:24:01;102268.97799999999;;;4.8;unknown
73422;BME280;61637;47.760;-122.022;2023-04-21T05:26:01;102268.97799999999;;;4.8;unknown
73422;BME280;61637;47.760;-122.022;2023-04-21T05:28:01;102268.97799999999;;;4.8;unknown
73422;BME280;61637;47.760;-122.022;2023-04-21T05:30:01;102268.97799999999;;;4.8;unknown
73422;BME280;61637;47.760;-122.022;2023-04-21T05:32:01;102268.97799999999;;;4.8;unknown
73422;BME280;61637;47.760;-122.022;2023-04-21T05:34:01;102268.97799999999;;;4.8;unknown
73422;BME280;61637;47.760;-122.022;2023-04-21T05:36:01;102268.97799999999;;;4.8;unknown
73422;BME280;61637;47.760;-122.022;2023-04-21T05:38:01;102268.97799999999;;;4.8;unknown
73422;BME280;61637;47.760;-122.022;2023-04-21T05:40:01;102268.97799999999;;;4.8;unknown
73422;BME280;61637;47.760;-122.022;2023-04-21T05:42:01;102268.97799999999;;;4.8;unknown
73422;BME280;61637;47.760;-122.022;2023-04-21T05:44:01;102268.97799999999;;;4.8;unknown
73422;BME280;61637;47.760;-122.022;2023-04-21T05:46:01;102268.97799999999;;;4.8;unknown
73422;BME280;61637;47.760;-122.022;2023-04-21T05:48:01;102268.97799999999;;;4.8;unknown
73422;BME280;61637;47.760;-122.022;2023-04-21T05:50:01;102268.97799999999;;;4.8;unknown
73422;BME280;61637;47.760;-122.022;2023-04-21T05:52:01;102268.97799999999;;;4.8;unknown
73422;BME280;61637;47.760;-122.022;2023-04-21T05:54:01;102268.97799999999;;;4.8;unknown
73422;BME280;61637;47.760;-122.022;2023-04-21T05:56:01;102268.97799999999;;;4.8;unknown
73422;BME280;61637;47.760;-122.022;2023-04-21T05:58:01;102268.97799999999;;;4.7;unknown
73422;BME280;61637;47.760;-122.022;2023-04-21T06:00:01;102268.97799999999;;;4.7;unknown
73422;BME280;61637;47.760;-122.022;2023-04-21T06:02:01;102268.97799999999;;;4.7;unknown
73422;BME280;61637;47.760;-122.022;2023-04-21T06:04:01;102268.97799999999;;;4.7;unknown
73422;BME280;61637;47.760;-122.022;2023-04-21T06:06:01;102268.97799999999;;;4.7;unknown
73422;BME280;61637;47.760;-122.022;2023-04-21T06:08:01;102268.97799999999;;;4.7;unknown
73422;BME280;61637;47.760;-122.022;2023-04-21T06:10:01;102268.97799999999;;;4.7;unknown
73422;BME280;61637;47.760;-122.022;2023-04-21T06:12:01;102268.97799999999;;;4.7;unknown
73422;BME280;61637;47.760;-122.022;2023-04-21T06:14:01;102268.97799999999;;;4.7;unknown
73422;BME280;61637;47.760;-122.022;2023-04-21T06:16:01;102268.97799999999;;;4.7;unknown
73422;BME280;61637;47.760;-122.022;2023-04-21T06:18:01;102268.97799999999;;;4.7;unknown
73422;BME280;61637;47.760;-122.022;2023-04-21T06:20:01;102268.97799999999;;;4.7;unknown
73422;BME280;61637;47.760;-122.022;2023-04-21T06:22:01;102268.97799999999;;;4.7;unknown
73422;BME280;61637;47.760;-122.022;2023-04-21T06:24:01;102268.97799999999;;;4.7;unknown
73422;BME280;61637;47.760;-122.022;2023-04-21T06:26:01;102268.97799999999;;;4.7;unknown
73422;BME280;61637;47.760;-122.022;2023-04-21T06:28:01;102268.97799999999;;;4.7;unknown
73422;BME280;61637;47.760;-122.022;2023-04-21T06:30:01;102268.97799999999;;;4.7;unknown
73422;BME280;61637;47.760;-122.022;2023-04-21T06:32:01;102268.97799999999;;;4.7;unknown
73422;BME280;61637;47.760;-122.022;2023-04-21T06:34:01;102268.97799999999;;;4.7;unknown
73422;BME280;61637;47.760;-122.022;2023-04-21T06:36:01;102268.97799999999;;;4.7;unknown
73422;BME280;61637;47.760;-122.022;2023-04-21T06:38:01;102268.97799999999;;;4.7;unknown
73422;BME280;61637;47.760;-122.022;2023-04-21T06:40:01;102268.97799999999;;;4.7;unknown
73422;BME280;61637;47.760;-122.022;2023-04-21T06:42:01;102268.97799999999;;;4.7;unknown
73422;BME280;61637;47.760;-122.022;2023-04-21T06:44:01;102268.97799999999;;;4.7;unknown
73422;BME280;61637;47.760;-122.022;2023-04-21T06:46:01;102268.97799999999;;;4.7;unknown
73422;BME280;61637;47.760;-122.022;2023-04-21T06:48:01;102268.97799999999;;;4.7;unknown
73422;BME280;61637;47.760;-122.022;2023-04-21T06:50:01;102268.97799999999;;;4.7;unknown
73422;BME280;61637;47.760;-122.022;2023-04-21T06:52:01;102268.97799999999;;;4.7;unknown
73422;BME280;61637;47.760;-122.022;2023-04-21T06:54:01;102268.97799999999;;;4.7;unknown
73422;BME280;61637;47.760;-122.022;2023-04-21T06:56:01;102268.97799999999;;;4.7;unknown
73422;BME280;61637;47.760;-122.022;2023-04-21T06:58:01;102268.97799999999;;;4.7;unknown
73422;BME280;61637;47.760;-122.022;2023-04-21T07:00:01;102268.97799999999;;;4.7;unknown
73422;BME280;61637;47.760;-122.022;2023-04-21T07:02:01;102268.97799999999;;;4.7;unknown
73422;BME280;61637;47.760;-122.022;2023-04-21T07:04:01;102268.97799999999;;;4.7;unknown
73422;BME280;61637;47.760;-122.022;2023-04-21T07:06:01;102268.97799999999;;;4.8;unknown
73422;BME280;61637;47.760;-122.022;2023-04-21T07:08:01;102268.97799999999;;;4.8;unknown
73422;BME280;61637;47.760;-122.022;2023-04-21T07:10:01;102268.97799999999;;;4.8;unknown
73422;BME280;61637;47.760;-122.022;2023-04-21T07:12:01;102268.97799999999;;;4.8;unknown
73422;BME280;61637;47.760;-122.022;2023-04-21T07:14:01;102268.97799999999;;;4.9;unknown
73422;BME280;61637;47.760;-122.022;2023-04-21T07:16:01;102268.97799999999;;;4.9;unknown
73422;BME280;61637;47.760;-122.022;2023-04-21T07:18:01;102268.97799999999;;;4.9;unknown
73422;BME280;61637;47.760;-122.022;2023-04-21T07:20:01;102268.97799999999;;;4.9;unknown
73422;BME280;61637;47.760;-122.022;2023-04-21T07:22:01;102268.97799999999;;;4.9;unknown
73422;BME280;61637;47.760;-122.022;2023-04-21T07:24:01;102607.617;;;4.9;unknown
73422;BME280;61637;47.760;-122.022;2023-04-21T07:26:01;102607.617;;;4.9;unknown
73422;BME280;61637;47.760;-122.022;2023-04-21T07:28:01;102607.617;;;4.9;unknown
73422;BME280;61637;47.760;-122.022;2023-04-21T07:30:01;102607.617;;;4.9;unknown
73422;BME280;61637;47.760;-122.022;2023-04-21T07:32:01;102607.617;;;4.9;unknown
73422;BME280;61637;47.760;-122.022;2023-04-21T07:34:01;102607.617;;;4.9;unknown
73422;BME280;61637;47.760;-122.022;2023-04-21T07:36:01;102607.617;;;4.9;unknown
73422;BME280;61637;47.760;-122.022;2023-04-21T07:38:01;102607.617;;;5.0;unknown
73422;BME280;61637;47.760;-122.022;2023-04-21T07:40:01;102607.617;;;5.1;unknown
73422;BME280;61637;47.760;-122.022;2023-04-21T07:42:01;102607.617;;;5.0;unknown
73422;BME280;61637;47.760;-122.022;2023-04-21T07:44:01;102607.617;;;5.1;unknown
73422;BME280;61637;47.760;-122.022;2023-04-21T07:46:01;102607.617;;;5.1;unknown
73422;BME280;61637;47.760;-122.022;2023-04-21T07:48:01;102607.617;;;5.1;unknown
73422;BME280;61637;47.760;-122.022;2023-04-21T07:50:01;102607.617;;;5.1;unknown
73422;BME280;61637;47.760;-122.022;2023-04-21T07:52:01;102607.617;;;5.1;unknown
73422;BME280;61637;47.760;-122.022;2023-04-21T07:54:01;102607.617;;;5.1;unknown
73422;BME280;61637;47.760;-122.022;2023-04-21T07:56:01;102607.617;;;5.1;unknown
73422;BME280;61637;47.760;-122.022;2023-04-21T07:58:01;102607.617;;;5.1;unknown
73422;BME280;61637;47.760;-122.022;2023-04-21T08:00:01;102607.617;;;5.1;unknown
73422;BME280;61637;47.760;-122.022;2023-04-21T08:02:01;102607.617;;;5.1;unknown
73422;BME280;61637;47.760;-122.022;2023-04-21T08:04:01;102607.617;;;5.1;unknown
73422;BME280;61637;47.760;-122.022;2023-04-21T08:06:01;102607.617;;;5.1;unknown
73422;BME280;61637;47.760;-122.022;2023-04-21T08:08:01;102607.617;;;5.1;unknown
73422;BME280;61637;47.760;-122.022;2023-04-21T08:10:01;102607.617;;;5.1;unknown
73422;BME280;61637;47.760;-122.022;2023-04-21T08:12:01;102607.617;;;5.1;unknown
73422;BME280;61637;47.760;-122.022;2023-04-21T08:14:01;102607.617;;;5.1;unknown
73422;BME280;61637;47.760;-122.022;2023-04-21T08:16:01;102607.617;;;5.1;unknown
73422;BME280;61637;47.760;-122.022;2023-04-21T08:18:01;102607.617;;;5.1;unknown
73422;BME280;61637;47.760;-122.022;2023-04-21T08:20:01;102607.617;;;5.0;unknown
73422;BME280;61637;47.760;-122.022;2023-04-21T08:22:01;102607.617;;;5.0;unknown
73422;BME280;61637;47.760;-122.022;2023-04-21T08:24:01;102607.617;;;5.0;unknown
73422;BME280;61637;47.760;-122.022;2023-04-21T08:26:01;102607.617;;;5.1;unknown
73422;BME280;61637;47.760;-122.022;2023-04-21T08:28:01;102607.617;;;5.0;unknown
73422;BME280;61637;47.760;-122.022;2023-04-21T08:30:01;102607.617;;;5.1;unknown
73422;BME280;61637;47.760;-122.022;2023-04-21T08:32:01;102607.617;;;5.1;unknown
73422;BME280;61637;47.760;-122.022;2023-04-21T08:34:01;102607.617;;;5.1;unknown
73422;BME280;61637;47.760;-122.022;2023-04-21T08:36:01;102607.617;;;5.1;unknown
73422;BME280;61637;47.760;-122.022;2023-04-21T08:38:01;102607.617;;;5.1;unknown
73422;BME280;61637;47.760;-122.022;2023-04-21T08:40:01;102607.617;;;5.1;unknown
73422;BME280;61637;47.760;-122.022;2023-04-21T08:42:01;102607.617;;;5.1;unknown
73422;BME280;61637;47.760;-122.022;2023-04-21T08:44:01;102607.617;;;5.1;unknown
73422;BME280;61637;47.760;-122.022;2023-04-21T08:46:01;102607.617;;;5.1;unknown
73422;BME280;61637;47.760;-122.022;2023-04-21T08:48:01;102607.617;;;5.1;unknown
73422;BME280;61637;47.760;-122.022;2023-04-21T08:50:01;102607.617;;;5.1;unknown
73422;BME280;61637;47.760;-122.022;2023-04-21T08:52:01;102607.617;;;5.1;unknown
73422;BME280;61637;47.760;-122.022;2023-04-21T08:54:01;102607.617;;;5.1;unknown
73422;BME280;61637;47.760;-122.022;2023-04-21T08:56:01;102607.617;;;5.1;unknown
73422;BME280;61637;47.760;-122.022;2023-04-21T08:58:03;102607.617;;;5.1;unknown
73422;BME280;61637;47.760;-122.022;2023-04-21T09:00:01;102607.617;;;5.1;unknown
73422;BME280;61637;47.760;-122.022;2023-04-21T09:02:09;102607.617;;;5.1;unknown
73422;BME280;61637;47.760;-122.022;2023-04-21T09:06:02;102607.617;;;5.2;unknown
73422;BME280;61637;47.760;-122.022;2023-04-21T09:08:08;102607.617;;;5.2;unknown
73422;BME280;61637;47.760;-122.022;2023-04-21T09:10:01;102607.617;;;5.2;unknown
73422;BME280;61637;47.760;-122.022;2023-04-21T09:12:01;102607.617;;;5.2;unknown